Time;durP1;ratioP1;P1;durP2;ratioP2;P2;SDS_P1;SDS_P2;PMS_P1;PMS_P2;Temp;Humidity;BMP_temperature;BMP_pressure;BME280_temperature;BME280_humidity;BME280_pressure;Samples;Min_cycle;Max_cycle;Signal;HPM_P1;HPM_P2
2022/07/14 00:01:09;;;;;;;;;;;12.90;92.10;;;;;;5079137;28;19924;-60
2022/07/14 00:03:37;;;;;;;;;;;12.80;92.30;;;;;;5081023;28;19925;-60
2022/07/14 00:06:05;;;;;;;;;;;12.80;92.40;;;;;;5088554;28;19931;-59
2022/07/14 00:08:32;;;;;;;;;;;12.80;92.50;;;;;;5086879;28;19927;-60
2022/07/14 00:11:00;;;;;;;;;;;12.70;92.50;;;;;;5076246;28;19925;-60
2022/07/14 00:13:27;;;;;;;;;;;12.70;92.70;;;;;;5068343;28;19928;-59
2022/07/14 00:15:54;;;;;;;;;;;12.60;92.80;;;;;;5066361;28;19932;-59
2022/07/14 00:18:22;;;;;;;;;;;12.60;92.90;;;;;;5075108;28;19924;-60
2022/07/14 00:20:50;;;;;;;;;;;12.60;92.90;;;;;;5089399;28;19924;-59
2022/07/14 00:23:19;;;;;;;;;;;12.50;93.00;;;;;;5091981;28;19981;-58
2022/07/14 00:25:47;;;;;;;;;;;12.50;93.00;;;;;;5090373;28;19924;-59
2022/07/14 00:28:14;;;;;;;;;;;12.50;93.10;;;;;;5087349;28;19939;-58
2022/07/14 00:30:45;;;;;;;;;;;12.50;93.30;;;;;;5084839;28;19924;-55
2022/07/14 00:33:12;;;;;;;;;;;12.50;93.40;;;;;;5086308;28;20299;-54
2022/07/14 00:35:41;;;;;;;;;;;12.50;93.50;;;;;;5070745;28;20303;-55
2022/07/14 00:38:08;;;;;;;;;;;12.40;93.80;;;;;;5076648;28;19924;-54
2022/07/14 00:40:36;;;;;;;;;;;12.40;93.90;;;;;;5090404;28;19928;-55
2022/07/14 00:43:04;;;;;;;;;;;12.30;94.00;;;;;;5085656;28;19931;-54
2022/07/14 00:45:31;;;;;;;;;;;12.30;94.10;;;;;;5070250;28;19932;-56
2022/07/14 00:47:59;;;;;;;;;;;12.20;94.30;;;;;;5074413;28;19932;-58
2022/07/14 00:50:26;;;;;;;;;;;12.20;94.50;;;;;;5083540;28;20418;-59
2022/07/14 00:52:54;;;;;;;;;;;12.10;94.50;;;;;;5090783;28;19935;-59
2022/07/14 00:55:21;;;;;;;;;;;12.10;94.70;;;;;;5088535;28;20429;-59
2022/07/14 00:57:50;;;;;;;;;;;12.10;94.90;;;;;;5072357;28;19924;-58
2022/07/14 01:00:18;;;;;;;;;;;12.10;95.10;;;;;;5080287;28;19936;-59
2022/07/14 01:02:46;;;;;;;;;;;12.00;95.20;;;;;;5072384;28;20308;-58
2022/07/14 01:05:14;;;;;;;;;;;12.00;95.40;;;;;;5087494;28;19924;-59
2022/07/14 01:07:41;;;;;;;;;;;12.00;95.60;;;;;;5087191;28;20291;-59
2022/07/14 01:10:09;;;;;;;;;;;11.90;95.60;;;;;;5089656;28;19928;-58
2022/07/14 01:12:38;;;;;;;;;;;11.90;95.80;;;;;;5075269;28;20003;-57
2022/07/14 01:15:05;;;;;;;;;;;11.90;95.90;;;;;;5090834;28;19928;-59
2022/07/14 01:17:33;;;;;;;;;;;11.80;96.00;;;;;;5085387;28;20307;-59
2022/07/14 01:20:01;;;;;;;;;;;11.80;96.20;;;;;;5070341;28;20299;-58
2022/07/14 01:22:28;;;;;;;;;;;11.70;96.30;;;;;;5085519;28;19930;-59
2022/07/14 01:24:56;;;;;;;;;;;11.30;96.30;;;;;;5075819;28;20418;-59
2022/07/14 01:27:23;;;;;;;;;;;11.70;96.50;;;;;;5069909;28;19932;-59
2022/07/14 01:29:51;;;;;;;;;;;11.60;96.60;;;;;;5076954;28;19925;-57
2022/07/14 01:32:19;;;;;;;;;;;11.60;96.70;;;;;;5072544;28;19932;-58
2022/07/14 01:34:47;;;;;;;;;;;11.60;96.90;;;;;;5073250;28;19924;-56
2022/07/14 01:37:14;;;;;;;;;;;11.60;96.90;;;;;;5072835;28;19928;-58
2022/07/14 01:39:43;;;;;;;;;;;11.60;97.00;;;;;;5092012;28;19994;-58
2022/07/14 01:42:11;;;;;;;;;;;11.50;97.10;;;;;;5084841;28;20323;-59
2022/07/14 01:44:39;;;;;;;;;;;11.60;97.20;;;;;;5071641;28;19924;-59
2022/07/14 01:47:06;;;;;;;;;;;11.50;97.30;;;;;;5079166;28;20362;-59
2022/07/14 01:49:34;;;;;;;;;;;11.50;97.50;;;;;;5071264;28;19928;-59
2022/07/14 01:52:06;;;;;;;;;;;11.50;97.60;;;;;;5071882;28;20387;-59
2022/07/14 01:54:36;;;;;;;;;;;11.50;97.70;;;;;;5073201;28;19928;-59
2022/07/14 01:57:06;;;;;;;;;;;11.50;97.80;;;;;;5083770;28;20379;-54
2022/07/14 01:59:33;;;;;;;;;;;11.50;97.90;;;;;;5071328;28;19931;-57
2022/07/14 02:02:01;;;;;;;;;;;11.50;98.00;;;;;;5071626;28;19924;-57
2022/07/14 02:04:29;;;;;;;;;;;11.50;98.10;;;;;;5071633;28;19951;-57
2022/07/14 02:06:56;;;;;;;;;;;11.50;98.20;;;;;;5078356;28;19924;-56
2022/07/14 02:12:39;;;;;;;;;;;11.50;98.20;;;;;;5088234;28;20480;-57
2022/07/14 02:15:09;;;;;;;;;;;11.50;98.30;;;;;;5087639;28;19924;-58
2022/07/14 02:17:37;;;;;;;;;;;11.50;98.30;;;;;;5072109;28;19928;-57
2022/07/14 02:20:05;;;;;;;;;;;11.40;98.40;;;;;;5087723;28;19935;-58
2022/07/14 02:22:33;;;;;;;;;;;11.40;98.50;;;;;;5068744;28;19924;-59
2022/07/14 02:25:00;;;;;;;;;;;11.40;98.70;;;;;;5075098;28;19931;-59
2022/07/14 02:27:28;;;;;;;;;;;11.30;98.70;;;;;;5071083;28;19925;-58
2022/07/14 02:29:55;;;;;;;;;;;11.30;98.90;;;;;;5071237;28;19943;-60
2022/07/14 02:32:23;;;;;;;;;;;11.30;99.10;;;;;;5078847;28;19931;-57
2022/07/14 02:34:50;;;;;;;;;;;11.30;99.40;;;;;;5089495;28;19924;-59
2022/07/14 02:37:18;;;;;;;;;;;11.30;99.70;;;;;;5091208;28;19924;-59
2022/07/14 02:39:48;;;;;;;;;;;11.30;99.90;;;;;;5081533;28;19931;-60
2022/07/14 02:42:15;;;;;;;;;;;11.20;99.90;;;;;;5070400;28;19928;-59
2022/07/14 02:44:43;;;;;;;;;;;11.20;99.90;;;;;;5079990;28;19931;-59
2022/07/14 02:47:12;;;;;;;;;;;11.20;99.90;;;;;;5088008;28;19924;-58
2022/07/14 02:49:39;;;;;;;;;;;11.20;99.90;;;;;;5085548;28;19924;-60
2022/07/14 02:52:07;;;;;;;;;;;11.20;99.90;;;;;;5089751;28;19935;-59
2022/07/14 02:54:38;;;;;;;;;;;11.20;99.90;;;;;;5074811;28;20272;-59
2022/07/14 02:57:06;;;;;;;;;;;11.10;99.90;;;;;;5070407;28;19932;-59
2022/07/14 02:59:34;;;;;;;;;;;11.20;99.90;;;;;;5071683;28;20292;-60
2022/07/14 03:02:01;;;;;;;;;;;11.20;99.90;;;;;;5086258;28;20392;-59
2022/07/14 03:04:29;;;;;;;;;;;11.20;99.90;;;;;;5089052;28;19931;-59
2022/07/14 03:06:56;;;;;;;;;;;11.20;99.90;;;;;;5090766;28;19924;-55
2022/07/14 03:09:26;;;;;;;;;;;11.20;99.90;;;;;;5089770;28;19948;-59
2022/07/14 03:11:53;;;;;;;;;;;11.20;99.90;;;;;;5091115;28;19924;-58
2022/07/14 03:14:22;;;;;;;;;;;11.20;99.90;;;;;;5091659;28;20287;-56
2022/07/14 03:16:49;;;;;;;;;;;11.20;99.90;;;;;;5088785;28;19924;-57
2022/07/14 03:19:17;;;;;;;;;;;11.20;99.90;;;;;;5091645;28;20367;-58
2022/07/14 03:21:46;;;;;;;;;;;11.20;99.90;;;;;;5088454;28;19924;-55
2022/07/14 03:24:15;;;;;;;;;;;11.20;99.90;;;;;;5090553;28;19928;-58
2022/07/14 03:26:43;;;;;;;;;;;11.20;99.90;;;;;;5090331;28;19931;-56
2022/07/14 03:29:11;;;;;;;;;;;11.20;99.90;;;;;;5090574;28;19924;-54
2022/07/14 03:31:39;;;;;;;;;;;11.20;99.90;;;;;;5072983;28;19925;-57
2022/07/14 03:34:12;;;;;;;;;;;11.20;99.90;;;;;;5087357;28;19932;-59
2022/07/14 03:36:42;;;;;;;;;;;11.20;99.90;;;;;;5070489;28;19931;-59
2022/07/14 03:39:20;;;;;;;;;;;11.30;99.90;;;;;;5070081;28;19998;-56
2022/07/14 03:41:49;;;;;;;;;;;11.30;99.90;;;;;;5087226;28;19978;-58
2022/07/14 03:44:16;;;;;;;;;;;11.30;99.90;;;;;;5087278;28;20408;-58
2022/07/14 03:46:43;;;;;;;;;;;11.40;99.90;;;;;;5070447;28;19925;-60
2022/07/14 03:49:16;;;;;;;;;;;11.40;99.90;;;;;;5086951;28;19925;-60
2022/07/14 03:51:44;;;;;;;;;;;11.40;99.90;;;;;;5070339;28;20316;-59
2022/07/14 03:54:16;;;;;;;;;;;11.40;99.90;;;;;;5070464;28;19928;-61
2022/07/14 03:56:44;;;;;;;;;;;11.50;99.90;;;;;;5074300;28;19924;-58
2022/07/14 03:59:14;;;;;;;;;;;11.50;99.90;;;;;;5090994;28;20417;-56
2022/07/14 04:01:41;;;;;;;;;;;11.50;99.90;;;;;;5075151;28;19931;-60
2022/07/14 04:04:09;;;;;;;;;;;11.50;99.90;;;;;;5090928;28;20391;-62
2022/07/14 04:06:36;;;;;;;;;;;11.60;99.90;;;;;;5091028;28;19925;-59
2022/07/14 04:09:06;;;;;;;;;;;11.60;99.90;;;;;;5056910;28;19936;-58
2022/07/14 04:11:39;;;;;;;;;;;11.60;99.90;;;;;;5090515;28;19933;-57
2022/07/14 04:14:06;;;;;;;;;;;11.60;99.90;;;;;;5090826;28;19931;-56
2022/07/14 04:16:37;;;;;;;;;;;11.70;99.90;;;;;;5090634;28;19928;-58
2022/07/14 04:19:06;;;;;;;;;;;11.70;99.90;;;;;;5073463;28;19925;-58
2022/07/14 04:21:37;;;;;;;;;;;11.70;99.90;;;;;;5073586;28;20276;-58
2022/07/14 04:24:05;;;;;;;;;;;11.70;99.90;;;;;;5084840;28;19924;-55
2022/07/14 04:26:32;;;;;;;;;;;11.70;99.90;;;;;;5077344;28;19924;-58
2022/07/14 04:29:00;;;;;;;;;;;11.80;99.90;;;;;;5073467;28;19925;-57
2022/07/14 04:31:29;;;;;;;;;;;11.80;99.90;;;;;;5073004;28;20386;-58
2022/07/14 04:33:56;;;;;;;;;;;11.80;99.90;;;;;;5090291;28;19928;-59
2022/07/14 04:36:24;;;;;;;;;;;11.90;99.90;;;;;;5073445;28;19932;-56
2022/07/14 04:38:52;;;;;;;;;;;11.90;99.90;;;;;;5073272;28;19924;-57
2022/07/14 04:41:21;;;;;;;;;;;11.90;99.90;;;;;;5074471;28;19931;-59
2022/07/14 04:43:49;;;;;;;;;;;12.00;99.90;;;;;;5074476;28;19931;-59
2022/07/14 04:46:18;;;;;;;;;;;12.00;99.90;;;;;;5073176;28;20399;-58
2022/07/14 04:54:26;;;;;;;;;;;12.10;99.90;;;;;;5069852;28;20301;-59
2022/07/14 04:57:09;;;;;;;;;;;12.20;99.90;;;;;;5072107;28;19936;-57
2022/07/14 04:59:42;;;;;;;;;;;12.30;99.90;;;;;;5089950;28;19928;-55
2022/07/14 05:02:09;;;;;;;;;;;12.40;99.90;;;;;;5084136;28;19935;-59
2022/07/14 05:04:38;;;;;;;;;;;12.40;99.90;;;;;;5082917;28;19924;-56
2022/07/14 05:07:07;;;;;;;;;;;12.50;99.90;;;;;;5066624;28;19928;-54
2022/07/14 05:09:39;;;;;;;;;;;12.50;99.90;;;;;;5086485;28;20383;-55
2022/07/14 05:12:11;;;;;;;;;;;12.60;99.90;;;;;;5086141;28;20283;-56
2022/07/14 05:14:39;;;;;;;;;;;12.60;99.90;;;;;;5086380;28;19924;-55
2022/07/14 05:17:07;;;;;;;;;;;12.70;99.90;;;;;;5085781;28;19935;-54
2022/07/14 05:19:51;;;;;;;;;;;12.70;99.90;;;;;;5066662;28;19929;-58
2022/07/14 05:22:20;;;;;;;;;;;12.80;99.90;;;;;;5073740;28;19924;-57
2022/07/14 05:24:47;;;;;;;;;;;12.80;99.90;;;;;;5090469;28;19928;-52
2022/07/14 05:27:15;;;;;;;;;;;12.90;99.90;;;;;;5072331;28;19932;-56
2022/07/14 05:29:44;;;;;;;;;;;13.00;99.90;;;;;;5072864;28;19928;-53
2022/07/14 05:32:12;;;;;;;;;;;13.30;99.90;;;;;;5086489;28;19928;-57
2022/07/14 05:34:42;;;;;;;;;;;13.10;99.90;;;;;;5082253;28;19929;-56
2022/07/14 05:37:12;;;;;;;;;;;13.10;99.90;;;;;;5067051;28;19928;-54
2022/07/14 05:39:40;;;;;;;;;;;13.20;99.90;;;;;;5086248;28;20492;-53
2022/07/14 05:42:07;;;;;;;;;;;13.30;99.90;;;;;;5088712;28;19932;-53
2022/07/14 05:44:35;;;;;;;;;;;13.40;99.90;;;;;;5090690;28;19928;-58
2022/07/14 05:47:03;;;;;;;;;;;13.50;99.90;;;;;;5088730;28;19924;-58
2022/07/14 05:49:32;;;;;;;;;;;13.60;99.90;;;;;;5068206;28;19936;-58
2022/07/14 05:52:02;;;;;;;;;;;13.60;99.90;;;;;;5067864;28;19924;-59
2022/07/14 05:54:32;;;;;;;;;;;13.70;99.90;;;;;;5085507;28;19924;-58
2022/07/14 05:56:59;;;;;;;;;;;13.80;99.90;;;;;;5087456;28;19924;-59
2022/07/14 05:59:27;;;;;;;;;;;13.90;99.90;;;;;;5089280;28;19935;-56
2022/07/14 06:02:12;;;;;;;;;;;13.90;99.90;;;;;;5085551;28;19932;-59
2022/07/14 06:04:40;;;;;;;;;;;14.00;99.90;;;;;;5067907;28;19931;-59
2022/07/14 06:07:09;;;;;;;;;;;14.10;99.90;;;;;;5067972;28;19963;-59
2022/07/14 06:09:39;;;;;;;;;;;14.10;99.90;;;;;;5088516;28;19924;-58
2022/07/14 06:12:08;;;;;;;;;;;14.20;99.90;;;;;;5071043;28;19939;-59
2022/07/14 06:14:40;;;;;;;;;;;14.30;99.90;;;;;;5088450;28;20315;-58
2022/07/14 06:17:11;;;;;;;;;;;14.30;99.90;;;;;;5087391;28;19947;-59
2022/07/14 06:19:39;;;;;;;;;;;14.30;99.90;;;;;;5084563;28;19924;-60
2022/07/14 06:22:08;;;;;;;;;;;14.40;99.90;;;;;;5071799;28;19932;-57
2022/07/14 06:24:36;;;;;;;;;;;14.40;99.90;;;;;;5088237;28;20383;-58
2022/07/14 06:27:12;;;;;;;;;;;14.40;99.90;;;;;;5088014;28;20303;-56
2022/07/14 06:29:41;;;;;;;;;;;14.50;99.90;;;;;;5087964;28;20379;-55
2022/07/14 06:32:08;;;;;;;;;;;14.60;99.90;;;;;;5087345;28;19928;-59
2022/07/14 06:34:37;;;;;;;;;;;14.60;99.90;;;;;;5070326;28;20280;-59
2022/07/14 06:37:18;;;;;;;;;;;14.70;99.90;;;;;;5068391;28;19935;-57
2022/07/14 06:39:46;;;;;;;;;;;14.70;99.90;;;;;;5088017;28;20292;-59
2022/07/14 06:42:15;;;;;;;;;;;14.70;99.90;;;;;;5087952;28;19925;-60
2022/07/14 06:45:03;;;;;;;;;;;14.70;99.90;;;;;;5073724;28;20274;-58
2022/07/14 06:47:30;;;;;;;;;;;14.80;99.90;;;;;;5087411;28;19924;-59
2022/07/14 06:49:59;;;;;;;;;;;14.70;99.90;;;;;;5083953;28;19935;-58
2022/07/14 06:52:27;;;;;;;;;;;14.70;99.90;;;;;;5056101;28;19924;-58
2022/07/14 06:54:57;;;;;;;;;;;14.70;99.90;;;;;;5089028;28;19931;-58
2022/07/14 06:57:25;;;;;;;;;;;14.70;99.90;;;;;;5088986;28;19932;-60
2022/07/14 06:59:53;;;;;;;;;;;14.80;99.90;;;;;;5088814;28;19924;-58
2022/07/14 07:02:20;;;;;;;;;;;14.90;99.90;;;;;;5086621;28;20390;-58
2022/07/14 07:06:43;;;;;;;;;;;15.00;99.90;;;;;;5072018;28;19928;-57
2022/07/14 07:07:36;;;;;;;;;;;15.10;99.90;;;;;;5071761;28;19924;-58
2022/07/14 07:10:04;;;;;;;;;;;15.20;99.90;;;;;;5088791;28;19931;-59
2022/07/14 07:12:31;;;;;;;;;;;15.30;99.90;;;;;;5088486;28;19928;-60
2022/07/14 07:14:59;;;;;;;;;;;15.40;99.90;;;;;;5088521;28;20284;-60
2022/07/14 07:17:26;;;;;;;;;;;15.40;99.90;;;;;;5087783;28;19931;-60
2022/07/14 07:19:53;;;;;;;;;;;15.50;99.90;;;;;;5073938;28;19936;-60
2022/07/14 07:22:21;;;;;;;;;;;15.50;99.90;;;;;;5071099;28;19924;-61
2022/07/14 07:24:48;;;;;;;;;;;15.60;99.90;;;;;;5088593;28;19928;-59
2022/07/14 07:27:16;;;;;;;;;;;15.60;99.90;;;;;;5088904;28;20402;-58
2022/07/14 07:29:43;;;;;;;;;;;15.60;99.90;;;;;;5091516;28;19924;-58
2022/07/14 07:32:11;;;;;;;;;;;15.70;99.90;;;;;;5092722;28;19942;-59
2022/07/14 07:34:39;;;;;;;;;;;15.80;99.90;;;;;;5082457;28;19924;-59
2022/07/14 07:37:06;;;;;;;;;;;15.80;99.90;;;;;;5072513;28;19924;-60
2022/07/14 07:39:53;;;;;;;;;;;15.90;99.90;;;;;;5092641;28;19931;-58
2022/07/14 07:42:21;;;;;;;;;;;16.00;99.90;;;;;;5092437;28;19924;-58
2022/07/14 07:44:49;;;;;;;;;;;16.10;99.90;;;;;;5092593;28;19935;-61
2022/07/14 07:47:17;;;;;;;;;;;16.30;99.90;;;;;;5092728;28;20303;-58
2022/07/14 07:49:44;;;;;;;;;;;16.40;99.90;;;;;;5082420;28;19925;-58
2022/07/14 07:52:12;;;;;;;;;;;16.60;99.90;;;;;;5075142;28;20295;-60
2022/07/14 07:54:39;;;;;;;;;;;16.90;99.90;;;;;;5092607;28;19924;-54
2022/07/14 07:57:27;;;;;;;;;;;17.10;99.90;;;;;;5092314;28;19924;-54
2022/07/14 07:59:54;;;;;;;;;;;17.30;99.50;;;;;;5092476;28;19931;-59
2022/07/14 08:02:24;;;;;;;;;;;17.40;99.20;;;;;;5090853;28;19928;-56
2022/07/14 08:04:52;;;;;;;;;;;17.40;98.70;;;;;;5082055;28;20296;-55
2022/07/14 08:07:20;;;;;;;;;;;17.50;98.60;;;;;;5072717;28;20311;-55
2022/07/14 08:09:48;;;;;;;;;;;17.60;98.30;;;;;;5092413;28;19939;-56
2022/07/14 08:12:21;;;;;;;;;;;17.80;97.90;;;;;;5092175;28;19931;-61
2022/07/14 08:14:48;;;;;;;;;;;17.80;97.60;;;;;;5090866;28;20387;-61
2022/07/14 08:17:17;;;;;;;;;;;17.80;97.50;;;;;;5091841;28;19925;-60
2022/07/14 08:19:45;;;;;;;;;;;17.80;97.50;;;;;;5084121;28;19925;-58
2022/07/14 08:22:13;;;;;;;;;;;17.70;97.40;;;;;;5074349;28;19924;-62
2022/07/14 08:24:40;;;;;;;;;;;17.60;97.80;;;;;;5090656;28;19924;-58
2022/07/14 08:27:08;;;;;;;;;;;17.40;98.30;;;;;;5075871;28;19924;-56
2022/07/14 08:29:35;;;;;;;;;;;17.30;99.00;;;;;;5071541;28;19947;-59
2022/07/14 08:32:03;;;;;;;;;;;17.20;99.50;;;;;;5073031;28;20395;-61
2022/07/14 08:34:31;;;;;;;;;;;17.20;99.90;;;;;;5079763;28;19931;-54
2022/07/14 08:37:01;;;;;;;;;;;17.10;99.90;;;;;;5071903;28;19935;-55
2022/07/14 08:39:29;;;;;;;;;;;17.20;99.90;;;;;;5071065;28;19932;-55
2022/07/14 08:41:58;;;;;;;;;;;17.20;99.90;;;;;;5071833;28;19935;-54
2022/07/14 08:44:26;;;;;;;;;;;17.20;99.90;;;;;;5091282;28;19931;-61
2022/07/14 08:46:54;;;;;;;;;;;17.10;99.90;;;;;;5090468;28;20383;-57
2022/07/14 08:49:22;;;;;;;;;;;17.10;99.90;;;;;;5087578;28;19928;-58
2022/07/14 08:52:11;;;;;;;;;;;17.10;99.90;;;;;;5091229;28;19931;-62
2022/07/14 08:54:38;;;;;;;;;;;17.10;99.90;;;;;;5089212;28;20418;-61
2022/07/14 08:57:06;;;;;;;;;;;17.00;99.90;;;;;;5074257;28;20311;-60
2022/07/14 08:59:34;;;;;;;;;;;16.90;99.70;;;;;;5071304;28;19924;-60
2022/07/14 09:02:01;;;;;;;;;;;16.80;99.90;;;;;;5071710;28;19947;-61
2022/07/14 09:04:29;;;;;;;;;;;16.70;99.90;;;;;;5089635;28;19928;-59
2022/07/14 09:06:57;;;;;;;;;;;16.70;99.90;;;;;;5073958;28;19931;-60
2022/07/14 09:09:30;;;;;;;;;;;16.60;99.90;;;;;;5085979;28;19931;-60
2022/07/14 09:12:00;;;;;;;;;;;16.60;99.90;;;;;;5068112;28;19924;-60
2022/07/14 09:15:44;;;;;;;;;;;16.70;99.90;;;;;;5085875;28;20799;-60
2022/07/14 09:17:17;;;;;;;;;;;16.70;99.90;;;;;;5076553;28;19924;-59
2022/07/14 09:20:00;;;;;;;;;;;16.80;99.90;;;;;;5079489;28;19924;-58
2022/07/14 09:22:28;;;;;;;;;;;17.00;99.90;;;;;;5080622;28;19924;-60
2022/07/14 09:24:55;;;;;;;;;;;17.30;99.90;;;;;;5089247;28;19931;-60
2022/07/14 09:27:23;;;;;;;;;;;17.50;99.90;;;;;;5077673;28;19925;-61
2022/07/14 09:29:55;;;;;;;;;;;17.70;99.60;;;;;;5088589;28;19928;-60
2022/07/14 09:32:45;;;;;;;;;;;17.90;98.90;;;;;;5085202;28;19928;-59
2022/07/14 09:35:14;;;;;;;;;;;18.00;98.50;;;;;;5067843;28;19925;-61
2022/07/14 09:37:42;;;;;;;;;;;18.10;96.90;;;;;;5071531;28;19933;-61
2022/07/14 09:40:19;;;;;;;;;;;18.10;96.70;;;;;;5086851;28;19955;-61
2022/07/14 09:42:51;;;;;;;;;;;18.10;96.80;;;;;;5074794;28;20101;-60
2022/07/14 09:45:21;;;;;;;;;;;18.10;96.20;;;;;;5084749;28;19933;-61
2022/07/14 09:47:58;;;;;;;;;;;18.10;95.00;;;;;;5085666;28;19928;-61
2022/07/14 09:50:32;;;;;;;;;;;18.20;95.10;;;;;;5086489;28;19931;-60
2022/07/14 09:53:30;;;;;;;;;;;18.20;94.80;;;;;;5086444;28;19931;-60
2022/07/14 09:56:02;;;;;;;;;;;18.20;94.80;;;;;;5072266;28;19932;-59
2022/07/14 09:58:31;;;;;;;;;;;18.20;94.20;;;;;;5087164;28;19928;-59
2022/07/14 10:01:05;;;;;;;;;;;18.10;94.50;;;;;;5088747;28;19931;-59
2022/07/14 10:03:34;;;;;;;;;;;18.10;94.60;;;;;;5089815;28;19936;-58
2022/07/14 10:06:03;;;;;;;;;;;18.10;94.70;;;;;;5087998;28;19928;-61
2022/07/14 10:08:54;;;;;;;;;;;18.20;94.60;;;;;;5086491;28;19924;-60
2022/07/14 10:11:21;;;;;;;;;;;18.50;94.90;;;;;;5070561;28;20288;-56
2022/07/14 10:13:50;;;;;;;;;;;18.70;95.10;;;;;;5075619;28;19924;-56
2022/07/14 10:16:18;;;;;;;;;;;19.00;94.40;;;;;;5069128;28;20489;-57
2022/07/14 10:18:46;;;;;;;;;;;19.20;93.80;;;;;;5082542;28;19924;-56
2022/07/14 10:21:15;;;;;;;;;;;19.30;93.60;;;;;;5087205;28;20291;-55
2022/07/14 10:23:42;;;;;;;;;;;19.30;93.30;;;;;;5083939;28;19924;-56
2022/07/14 10:26:10;;;;;;;;;;;19.40;93.20;;;;;;5081645;28;19943;-55
2022/07/14 10:28:39;;;;;;;;;;;19.50;92.70;;;;;;5088229;28;19931;-56
2022/07/14 10:31:10;;;;;;;;;;;19.60;92.40;;;;;;5080291;28;19935;-57
2022/07/14 10:33:38;;;;;;;;;;;19.60;92.30;;;;;;5081705;28;20415;-55
2022/07/14 10:36:20;;;;;;;;;;;19.60;92.20;;;;;;5065732;28;20002;-54
2022/07/14 10:39:06;;;;;;;;;;;19.60;91.10;;;;;;5082597;28;19927;-56
2022/07/14 10:41:33;;;;;;;;;;;19.60;91.10;;;;;;5080566;28;19924;-60
2022/07/14 10:44:06;;;;;;;;;;;19.60;90.90;;;;;;5085991;28;19928;-62
2022/07/14 10:46:44;;;;;;;;;;;19.50;91.30;;;;;;5089343;28;19935;-61
2022/07/14 10:49:13;;;;;;;;;;;19.40;91.20;;;;;;5083817;28;19928;-55
2022/07/14 10:51:44;;;;;;;;;;;19.10;91.50;;;;;;5071163;28;19932;-55
2022/07/14 10:54:21;;;;;;;;;;;18.90;92.30;;;;;;5088232;28;19924;-58
2022/07/14 10:57:11;;;;;;;;;;;18.60;92.40;;;;;;5077569;28;19931;-58
2022/07/14 10:59:40;;;;;;;;;;;18.40;92.90;;;;;;5088936;28;20304;-60
2022/07/14 11:02:10;;;;;;;;;;;18.30;93.20;;;;;;5088700;28;19924;-60
2022/07/14 11:05:03;;;;;;;;;;;18.20;93.30;;;;;;5087385;28;20418;-60
2022/07/14 11:07:52;;;;;;;;;;;18.30;93.50;;;;;;5088799;28;20295;-61
2022/07/14 11:10:20;;;;;;;;;;;18.50;94.00;;;;;;5088893;28;19935;-59
2022/07/14 11:13:00;;;;;;;;;;;18.70;93.70;;;;;;5078395;28;19934;-60
2022/07/14 11:15:48;;;;;;;;;;;18.90;93.00;;;;;;5086131;28;20462;-58
2022/07/14 11:18:18;;;;;;;;;;;19.20;93.00;;;;;;5087245;28;19959;-59
2022/07/14 11:20:55;;;;;;;;;;;19.40;92.90;;;;;;5088796;28;19935;-61
2022/07/14 11:23:24;;;;;;;;;;;19.60;92.00;;;;;;5088660;28;20371;-60
2022/07/14 11:25:52;;;;;;;;;;;19.60;91.60;;;;;;5087008;28;20409;-60
2022/07/14 11:28:29;;;;;;;;;;;19.70;91.60;;;;;;5077884;28;19932;-59
2022/07/14 11:31:11;;;;;;;;;;;19.60;91.60;;;;;;5084703;28;20380;-60
2022/07/14 11:36:17;;;;;;;;;;;19.60;91.50;;;;;;5087138;28;19924;-60
2022/07/14 11:36:28;;;;;;;;;;;19.60;91.80;;;;;;5088469;28;19931;-58
2022/07/14 11:39:16;;;;;;;;;;;19.60;91.40;;;;;;5086954;28;19924;-61
2022/07/14 11:41:48;;;;;;;;;;;19.70;91.10;;;;;;5081735;28;19924;-54
2022/07/14 11:44:40;;;;;;;;;;;19.80;91.30;;;;;;5087024;28;19931;-55
2022/07/14 11:47:07;;;;;;;;;;;20.10;91.20;;;;;;5088234;28;20376;-58
2022/07/14 11:49:36;;;;;;;;;;;20.30;88.40;;;;;;5087253;28;20327;-61
2022/07/14 11:52:05;;;;;;;;;;;20.40;88.40;;;;;;5088574;28;19935;-60
2022/07/14 11:54:33;;;;;;;;;;;20.60;88.50;;;;;;5088692;28;19924;-60
2022/07/14 11:57:01;;;;;;;;;;;20.90;88.00;;;;;;5081235;28;19929;-59
2022/07/14 11:59:29;;;;;;;;;;;21.30;87.10;;;;;;5085066;28;19928;-59
2022/07/14 12:02:09;;;;;;;;;;;21.60;84.50;;;;;;5088535;28;19928;-59
2022/07/14 12:04:49;;;;;;;;;;;21.90;84.50;;;;;;5068440;28;19928;-57
2022/07/14 12:07:17;;;;;;;;;;;22.30;81.20;;;;;;5087025;28;19924;-59
2022/07/14 12:09:45;;;;;;;;;;;22.20;80.80;;;;;;5088331;28;19924;-61
2022/07/14 12:12:13;;;;;;;;;;;22.00;81.20;;;;;;5081674;28;20291;-59
2022/07/14 12:14:52;;;;;;;;;;;21.70;81.90;;;;;;5086899;28;20334;-60
2022/07/14 12:17:21;;;;;;;;;;;21.50;82.30;;;;;;5091251;28;20291;-60
2022/07/14 12:19:48;;;;;;;;;;;21.40;84.10;;;;;;5091833;28;19924;-59
2022/07/14 12:22:16;;;;;;;;;;;21.70;85.40;;;;;;5091607;28;19925;-60
2022/07/14 12:24:44;;;;;;;;;;;22.10;84.40;;;;;;5089804;28;20417;-59
2022/07/14 12:27:12;;;;;;;;;;;22.70;80.20;;;;;;5084928;28;19924;-60
2022/07/14 12:29:49;;;;;;;;;;;23.00;77.70;;;;;;5091933;28;20430;-59
2022/07/14 12:32:17;;;;;;;;;;;22.90;77.10;;;;;;5089937;28;19928;-59
2022/07/14 12:34:44;;;;;;;;;;;22.90;77.90;;;;;;5089556;28;19924;-62
2022/07/14 12:37:13;;;;;;;;;;;22.90;78.20;;;;;;5091731;28;19924;-59
2022/07/14 12:39:41;;;;;;;;;;;23.00;77.80;;;;;;5090360;28;19924;-60
2022/07/14 12:42:09;;;;;;;;;;;23.30;78.30;;;;;;5086993;28;19925;-60
2022/07/14 12:44:56;;;;;;;;;;;23.80;77.20;;;;;;5080386;28;19935;-61
2022/07/14 12:47:23;;;;;;;;;;;24.20;75.00;;;;;;5072224;28;19925;-64
2022/07/14 12:49:51;;;;;;;;;;;24.10;73.40;;;;;;5091284;28;20260;-60
2022/07/14 12:52:19;;;;;;;;;;;24.00;73.10;;;;;;5091292;28;19935;-61
2022/07/14 12:54:46;;;;;;;;;;;24.00;74.80;;;;;;5087027;28;20283;-60
2022/07/14 12:57:36;;;;;;;;;;;24.20;75.30;;;;;;5089193;28;19932;-61
2022/07/14 13:00:13;;;;;;;;;;;24.50;72.00;;;;;;5088159;28;19924;-57
2022/07/14 13:02:41;;;;;;;;;;;24.70;71.40;;;;;;5089468;28;19935;-57
2022/07/14 13:05:10;;;;;;;;;;;24.90;70.90;;;;;;5091385;28;19928;-58
2022/07/14 13:07:39;;;;;;;;;;;25.30;70.40;;;;;;5091370;28;20391;-57
2022/07/14 13:10:06;;;;;;;;;;;25.80;68.60;;;;;;5088522;28;19943;-60
2022/07/14 13:12:34;;;;;;;;;;;26.30;68.80;;;;;;5088175;27;19935;-60
2022/07/14 13:15:08;;;;;;;;;;;26.50;65.00;;;;;;5074809;28;19932;-59
2022/07/14 13:17:48;;;;;;;;;;;26.40;63.80;;;;;;5071807;28;19932;-59
2022/07/14 13:20:34;;;;;;;;;;;26.30;67.00;;;;;;5090614;28;19924;-59
2022/07/14 13:23:01;;;;;;;;;;;26.40;66.10;;;;;;5076166;28;19951;-61
2022/07/14 13:25:29;;;;;;;;;;;26.30;64.50;;;;;;5075465;28;19925;-61
2022/07/14 13:27:57;;;;;;;;;;;26.40;65.50;;;;;;5081345;28;19944;-61
2022/07/14 13:30:24;;;;;;;;;;;26.60;64.80;;;;;;5079637;28;19928;-57
2022/07/14 13:32:52;;;;;;;;;;;26.50;63.80;;;;;;5072326;28;19932;-60
2022/07/14 13:35:20;;;;;;;;;;;26.30;63.30;;;;;;5071120;28;19928;-62
2022/07/14 13:37:48;;;;;;;;;;;26.00;63.40;;;;;;5079513;28;19924;-58
2022/07/14 13:40:16;;;;;;;;;;;25.90;64.80;;;;;;5068662;28;19931;-58
2022/07/14 13:42:43;;;;;;;;;;;26.00;63.60;;;;;;5072292;28;19943;-59
2022/07/14 13:45:11;;;;;;;;;;;25.80;62.60;;;;;;5090420;28;20312;-59
2022/07/14 13:47:38;;;;;;;;;;;25.50;62.50;;;;;;5086222;28;20383;-59
2022/07/14 13:52:52;;;;;;;;;;;25.40;65.00;;;;;;5081997;28;19952;-57
2022/07/14 13:55:20;;;;;;;;;;;25.70;63.20;;;;;;5086991;28;19924;-57
2022/07/14 13:57:47;;;;;;;;;;;25.90;62.70;;;;;;5089021;28;19924;-59
2022/07/14 14:00:15;;;;;;;;;;;26.00;63.20;;;;;;5071954;28;19939;-59
2022/07/14 14:03:28;;;;;;;;;;;26.30;62.20;;;;;;5072901;28;19925;-60
2022/07/14 14:05:30;;;;;;;;;;;26.50;61.60;;;;;;5089164;28;19940;-60
2022/07/14 14:07:57;;;;;;;;;;;26.50;61.30;;;;;;5086323;28;19935;-60
2022/07/14 14:10:25;;;;;;;;;;;26.60;62.20;;;;;;5084943;28;19935;-60
2022/07/14 14:12:58;;;;;;;;;;;26.50;61.10;;;;;;5081748;28;19987;-60
2022/07/14 14:15:26;;;;;;;;;;;26.60;60.10;;;;;;5069379;28;19924;-61
2022/07/14 14:17:53;;;;;;;;;;;26.70;60.00;;;;;;5072372;28;19939;-60
2022/07/14 14:20:21;;;;;;;;;;;26.90;60.70;;;;;;5086436;28;19932;-61
2022/07/14 14:22:48;;;;;;;;;;;27.00;61.30;;;;;;5085400;28;19927;-59
2022/07/14 14:25:18;;;;;;;;;;;27.30;60.60;;;;;;5071326;28;19935;-60
2022/07/14 14:27:45;;;;;;;;;;;27.30;60.40;;;;;;5069813;28;19924;-58
2022/07/14 14:30:13;;;;;;;;;;;27.30;59.70;;;;;;5069501;28;19940;-60
2022/07/14 14:32:40;;;;;;;;;;;27.30;60.50;;;;;;5073986;28;19924;-60
2022/07/14 14:35:08;;;;;;;;;;;27.10;59.50;;;;;;5087442;28;19931;-61
2022/07/14 14:37:36;;;;;;;;;;;26.80;59.30;;;;;;5089160;28;20422;-60
2022/07/14 14:40:04;;;;;;;;;;;26.70;60.00;;;;;;5087190;28;19924;-60
2022/07/14 14:42:31;;;;;;;;;;;26.70;60.70;;;;;;5088465;28;20411;-62
2022/07/14 14:44:59;;;;;;;;;;;26.70;61.40;;;;;;5068191;28;19925;-62